sensor_id;sensor_type;location;lat;lon;timestamp;P1;durP1;ratioP1;P2;durP2;ratioP2
52786;SDS011;38661;53.152;5.846;2024-03-07T00:02:09;33.55;;;23.88;;
52786;SDS011;38661;53.152;5.846;2024-03-07T00:04:35;37.55;;;25.55;;
52786;SDS011;38661;53.152;5.846;2024-03-07T00:07:04;37.10;;;25.88;;
52786;SDS011;38661;53.152;5.846;2024-03-07T00:09:33;39.33;;;26.10;;
52786;SDS011;38661;53.152;5.846;2024-03-07T00:12:03;41.30;;;26.27;;
52786;SDS011;38661;53.152;5.846;2024-03-07T00:14:29;37.80;;;25.98;;
52786;SDS011;38661;53.152;5.846;2024-03-07T00:16:57;36.90;;;24.20;;
52786;SDS011;38661;53.152;5.846;2024-03-07T00:19:26;35.83;;;26.25;;
52786;SDS011;38661;53.152;5.846;2024-03-07T00:21:52;35.53;;;24.80;;
52786;SDS011;38661;53.152;5.846;2024-03-07T00:24:19;38.50;;;26.00;;
52786;SDS011;38661;53.152;5.846;2024-03-07T00:26:45;35.53;;;25.08;;
52786;SDS011;38661;53.152;5.846;2024-03-07T00:29:10;36.17;;;25.63;;
52786;SDS011;38661;53.152;5.846;2024-03-07T00:31:36;38.78;;;26.92;;
52786;SDS011;38661;53.152;5.846;2024-03-07T00:34:05;36.33;;;25.35;;
52786;SDS011;38661;53.152;5.846;2024-03-07T00:36:30;36.35;;;24.70;;
52786;SDS011;38661;53.152;5.846;2024-03-07T00:38:56;37.42;;;26.20;;
52786;SDS011;38661;53.152;5.846;2024-03-07T00:41:22;35.65;;;24.38;;
52786;SDS011;38661;53.152;5.846;2024-03-07T00:43:48;34.70;;;24.67;;
52786;SDS011;38661;53.152;5.846;2024-03-07T00:46:13;40.42;;;27.02;;
52786;SDS011;38661;53.152;5.846;2024-03-07T00:48:39;44.83;;;28.20;;
52786;SDS011;38661;53.152;5.846;2024-03-07T00:51:05;37.55;;;26.25;;
52786;SDS011;38661;53.152;5.846;2024-03-07T00:53:31;36.90;;;26.25;;
52786;SDS011;38661;53.152;5.846;2024-03-07T00:55:57;40.78;;;25.77;;
52786;SDS011;38661;53.152;5.846;2024-03-07T00:58:23;38.83;;;27.05;;
52786;SDS011;38661;53.152;5.846;2024-03-07T01:00:49;36.88;;;26.30;;
52786;SDS011;38661;53.152;5.846;2024-03-07T01:03:14;40.90;;;26.42;;
52786;SDS011;38661;53.152;5.846;2024-03-07T01:05:42;40.80;;;26.48;;
52786;SDS011;38661;53.152;5.846;2024-03-07T01:08:08;38.58;;;25.95;;
52786;SDS011;38661;53.152;5.846;2024-03-07T01:10:34;35.40;;;25.90;;
52786;SDS011;38661;53.152;5.846;2024-03-07T01:13:00;38.80;;;27.02;;
52786;SDS011;38661;53.152;5.846;2024-03-07T01:15:27;36.70;;;27.17;;
52786;SDS011;38661;53.152;5.846;2024-03-07T01:17:53;36.53;;;25.98;;
52786;SDS011;38661;53.152;5.846;2024-03-07T01:20:19;35.95;;;25.42;;
52786;SDS011;38661;53.152;5.846;2024-03-07T01:22:46;38.53;;;25.33;;
52786;SDS011;38661;53.152;5.846;2024-03-07T01:25:11;37.95;;;26.92;;
52786;SDS011;38661;53.152;5.846;2024-03-07T01:27:37;39.55;;;25.70;;
52786;SDS011;38661;53.152;5.846;2024-03-07T01:30:04;33.40;;;24.33;;
52786;SDS011;38661;53.152;5.846;2024-03-07T01:32:33;33.92;;;24.23;;
52786;SDS011;38661;53.152;5.846;2024-03-07T01:34:59;39.08;;;25.98;;
52786;SDS011;38661;53.152;5.846;2024-03-07T01:37:24;35.72;;;25.40;;
52786;SDS011;38661;53.152;5.846;2024-03-07T01:39:50;42.80;;;25.85;;
52786;SDS011;38661;53.152;5.846;2024-03-07T01:42:16;35.00;;;24.60;;
52786;SDS011;38661;53.152;5.846;2024-03-07T01:44:42;35.72;;;23.83;;
52786;SDS011;38661;53.152;5.846;2024-03-07T01:47:09;36.20;;;25.02;;
52786;SDS011;38661;53.152;5.846;2024-03-07T01:49:35;34.85;;;23.92;;
52786;SDS011;38661;53.152;5.846;2024-03-07T01:52:04;33.63;;;24.38;;
52786;SDS011;38661;53.152;5.846;2024-03-07T01:54:32;35.50;;;24.45;;
52786;SDS011;38661;53.152;5.846;2024-03-07T01:57:00;32.50;;;23.15;;
52786;SDS011;38661;53.152;5.846;2024-03-07T01:59:26;32.10;;;23.40;;
52786;SDS011;38661;53.152;5.846;2024-03-07T02:01:55;33.38;;;22.75;;
52786;SDS011;38661;53.152;5.846;2024-03-07T02:04:21;35.83;;;23.88;;
52786;SDS011;38661;53.152;5.846;2024-03-07T02:06:49;34.97;;;23.35;;
52786;SDS011;38661;53.152;5.846;2024-03-07T02:09:15;33.67;;;23.13;;
52786;SDS011;38661;53.152;5.846;2024-03-07T02:11:42;36.75;;;24.50;;
52786;SDS011;38661;53.152;5.846;2024-03-07T02:14:08;34.70;;;22.83;;
52786;SDS011;38661;53.152;5.846;2024-03-07T02:16:34;37.80;;;23.70;;
52786;SDS011;38661;53.152;5.846;2024-03-07T02:19:00;32.33;;;23.10;;
52786;SDS011;38661;53.152;5.846;2024-03-07T02:21:26;33.58;;;22.33;;
52786;SDS011;38661;53.152;5.846;2024-03-07T02:23:52;36.65;;;24.23;;
52786;SDS011;38661;53.152;5.846;2024-03-07T02:26:19;34.50;;;24.27;;
52786;SDS011;38661;53.152;5.846;2024-03-07T02:28:45;36.03;;;23.65;;
52786;SDS011;38661;53.152;5.846;2024-03-07T02:31:11;33.33;;;23.35;;
52786;SDS011;38661;53.152;5.846;2024-03-07T02:33:37;38.55;;;25.55;;
52786;SDS011;38661;53.152;5.846;2024-03-07T02:36:03;33.13;;;22.92;;
52786;SDS011;38661;53.152;5.846;2024-03-07T02:38:29;33.10;;;23.08;;
52786;SDS011;38661;53.152;5.846;2024-03-07T02:40:54;33.90;;;23.15;;
52786;SDS011;38661;53.152;5.846;2024-03-07T02:43:21;33.45;;;24.35;;
52786;SDS011;38661;53.152;5.846;2024-03-07T02:45:47;32.05;;;23.05;;
52786;SDS011;38661;53.152;5.846;2024-03-07T02:48:12;32.20;;;22.48;;
52786;SDS011;38661;53.152;5.846;2024-03-07T02:50:38;33.80;;;22.05;;
52786;SDS011;38661;53.152;5.846;2024-03-07T02:53:04;34.20;;;21.88;;
52786;SDS011;38661;53.152;5.846;2024-03-07T02:55:31;32.25;;;23.15;;
52786;SDS011;38661;53.152;5.846;2024-03-07T02:57:57;31.65;;;21.95;;
52786;SDS011;38661;53.152;5.846;2024-03-07T03:00:24;32.40;;;21.92;;
52786;SDS011;38661;53.152;5.846;2024-03-07T03:02:55;32.58;;;21.95;;
52786;SDS011;38661;53.152;5.846;2024-03-07T03:05:21;32.83;;;22.45;;
52786;SDS011;38661;53.152;5.846;2024-03-07T03:07:47;31.15;;;21.83;;
52786;SDS011;38661;53.152;5.846;2024-03-07T03:10:23;33.53;;;22.38;;
52786;SDS011;38661;53.152;5.846;2024-03-07T03:12:54;35.25;;;23.08;;
52786;SDS011;38661;53.152;5.846;2024-03-07T03:15:24;29.10;;;20.75;;
52786;SDS011;38661;53.152;5.846;2024-03-07T03:17:50;37.67;;;23.35;;
52786;SDS011;38661;53.152;5.846;2024-03-07T03:20:17;30.52;;;21.42;;
52786;SDS011;38661;53.152;5.846;2024-03-07T03:22:58;30.65;;;21.23;;
52786;SDS011;38661;53.152;5.846;2024-03-07T03:25:25;30.88;;;20.88;;
52786;SDS011;38661;53.152;5.846;2024-03-07T03:27:53;31.90;;;22.00;;
52786;SDS011;38661;53.152;5.846;2024-03-07T03:30:19;29.88;;;21.55;;
52786;SDS011;38661;53.152;5.846;2024-03-07T03:32:49;29.63;;;20.70;;
52786;SDS011;38661;53.152;5.846;2024-03-07T03:35:15;33.47;;;21.40;;
52786;SDS011;38661;53.152;5.846;2024-03-07T03:37:44;30.77;;;21.70;;
52786;SDS011;38661;53.152;5.846;2024-03-07T03:40:10;31.92;;;22.33;;
52786;SDS011;38661;53.152;5.846;2024-03-07T03:42:41;31.48;;;21.30;;
52786;SDS011;38661;53.152;5.846;2024-03-07T03:45:08;30.65;;;21.20;;
52786;SDS011;38661;53.152;5.846;2024-03-07T03:47:39;31.33;;;22.27;;
52786;SDS011;38661;53.152;5.846;2024-03-07T03:50:06;32.22;;;21.98;;
52786;SDS011;38661;53.152;5.846;2024-03-07T03:52:33;30.67;;;21.48;;
52786;SDS011;38661;53.152;5.846;2024-03-07T03:55:02;32.97;;;22.33;;
52786;SDS011;38661;53.152;5.846;2024-03-07T03:57:31;29.73;;;21.65;;
52786;SDS011;38661;53.152;5.846;2024-03-07T03:59:57;33.28;;;23.42;;
52786;SDS011;38661;53.152;5.846;2024-03-07T04:02:23;31.60;;;21.65;;
52786;SDS011;38661;53.152;5.846;2024-03-07T04:04:49;31.02;;;22.13;;
52786;SDS011;38661;53.152;5.846;2024-03-07T04:07:17;27.30;;;19.52;;
52786;SDS011;38661;53.152;5.846;2024-03-07T04:09:46;27.83;;;20.65;;
52786;SDS011;38661;53.152;5.846;2024-03-07T04:12:12;32.13;;;22.25;;
52786;SDS011;38661;53.152;5.846;2024-03-07T04:14:41;30.33;;;21.77;;
52786;SDS011;38661;53.152;5.846;2024-03-07T04:17:08;32.40;;;22.75;;
52786;SDS011;38661;53.152;5.846;2024-03-07T04:19:37;30.88;;;20.27;;
52786;SDS011;38661;53.152;5.846;2024-03-07T04:22:04;33.05;;;21.70;;
52786;SDS011;38661;53.152;5.846;2024-03-07T04:24:33;33.67;;;23.10;;
52786;SDS011;38661;53.152;5.846;2024-03-07T04:27:00;28.35;;;20.70;;
52786;SDS011;38661;53.152;5.846;2024-03-07T04:29:29;29.10;;;20.73;;
52786;SDS011;38661;53.152;5.846;2024-03-07T04:31:59;32.88;;;21.10;;
52786;SDS011;38661;53.152;5.846;2024-03-07T04:34:26;30.13;;;21.67;;
52786;SDS011;38661;53.152;5.846;2024-03-07T04:36:54;27.67;;;20.00;;
52786;SDS011;38661;53.152;5.846;2024-03-07T04:39:20;30.60;;;21.48;;
52786;SDS011;38661;53.152;5.846;2024-03-07T04:42:01;29.27;;;21.27;;
52786;SDS011;38661;53.152;5.846;2024-03-07T04:44:31;29.05;;;20.52;;
52786;SDS011;38661;53.152;5.846;2024-03-07T04:46:58;32.10;;;21.50;;
52786;SDS011;38661;53.152;5.846;2024-03-07T04:49:26;32.22;;;22.00;;
52786;SDS011;38661;53.152;5.846;2024-03-07T04:51:53;32.17;;;21.23;;
52786;SDS011;38661;53.152;5.846;2024-03-07T04:54:21;32.03;;;21.65;;
52786;SDS011;38661;53.152;5.846;2024-03-07T04:56:48;28.40;;;19.80;;
52786;SDS011;38661;53.152;5.846;2024-03-07T04:59:15;27.67;;;19.23;;
52786;SDS011;38661;53.152;5.846;2024-03-07T05:01:43;28.90;;;20.45;;
52786;SDS011;38661;53.152;5.846;2024-03-07T05:04:09;29.48;;;21.88;;
52786;SDS011;38661;53.152;5.846;2024-03-07T05:06:39;32.08;;;20.35;;
52786;SDS011;38661;53.152;5.846;2024-03-07T05:09:06;27.80;;;19.42;;
52786;SDS011;38661;53.152;5.846;2024-03-07T05:11:54;27.80;;;20.08;;
52786;SDS011;38661;53.152;5.846;2024-03-07T05:14:20;33.75;;;20.42;;
52786;SDS011;38661;53.152;5.846;2024-03-07T05:16:50;28.65;;;19.48;;
52786;SDS011;38661;53.152;5.846;2024-03-07T05:19:36;28.15;;;19.83;;
52786;SDS011;38661;53.152;5.846;2024-03-07T05:22:02;29.95;;;20.10;;
52786;SDS011;38661;53.152;5.846;2024-03-07T05:24:31;29.98;;;20.95;;
52786;SDS011;38661;53.152;5.846;2024-03-07T05:26:58;27.80;;;18.58;;
52786;SDS011;38661;53.152;5.846;2024-03-07T05:29:24;28.80;;;21.13;;
52786;SDS011;38661;53.152;5.846;2024-03-07T05:31:50;29.33;;;19.70;;
52786;SDS011;38661;53.152;5.846;2024-03-07T05:34:16;27.20;;;18.75;;
52786;SDS011;38661;53.152;5.846;2024-03-07T05:36:48;30.60;;;19.48;;
52786;SDS011;38661;53.152;5.846;2024-03-07T05:39:15;25.90;;;18.77;;
52786;SDS011;38661;53.152;5.846;2024-03-07T05:41:42;26.10;;;18.83;;
52786;SDS011;38661;53.152;5.846;2024-03-07T05:44:10;26.25;;;18.90;;
52786;SDS011;38661;53.152;5.846;2024-03-07T05:46:39;27.92;;;19.40;;
52786;SDS011;38661;53.152;5.846;2024-03-07T05:49:13;24.73;;;17.92;;
52786;SDS011;38661;53.152;5.846;2024-03-07T05:51:40;26.65;;;18.65;;
52786;SDS011;38661;53.152;5.846;2024-03-07T05:54:13;24.25;;;17.63;;
52786;SDS011;38661;53.152;5.846;2024-03-07T05:56:39;29.70;;;19.27;;
52786;SDS011;38661;53.152;5.846;2024-03-07T05:59:06;28.38;;;19.52;;
52786;SDS011;38661;53.152;5.846;2024-03-07T06:01:35;27.90;;;20.70;;
52786;SDS011;38661;53.152;5.846;2024-03-07T06:04:02;28.67;;;18.88;;
52786;SDS011;38661;53.152;5.846;2024-03-07T06:06:32;31.17;;;21.25;;
52786;SDS011;38661;53.152;5.846;2024-03-07T06:09:03;33.88;;;21.80;;
52786;SDS011;38661;53.152;5.846;2024-03-07T06:11:38;33.00;;;22.27;;
52786;SDS011;38661;53.152;5.846;2024-03-07T06:14:07;27.65;;;20.95;;
52786;SDS011;38661;53.152;5.846;2024-03-07T06:16:35;29.67;;;21.33;;
52786;SDS011;38661;53.152;5.846;2024-03-07T06:19:02;31.85;;;21.55;;
52786;SDS011;38661;53.152;5.846;2024-03-07T06:21:28;35.45;;;23.67;;
52786;SDS011;38661;53.152;5.846;2024-03-07T06:23:58;30.80;;;21.92;;
52786;SDS011;38661;53.152;5.846;2024-03-07T06:26:31;32.53;;;21.77;;
52786;SDS011;38661;53.152;5.846;2024-03-07T06:29:13;30.02;;;20.60;;
52786;SDS011;38661;53.152;5.846;2024-03-07T06:31:42;30.67;;;22.30;;
52786;SDS011;38661;53.152;5.846;2024-03-07T06:34:09;32.78;;;24.00;;
52786;SDS011;38661;53.152;5.846;2024-03-07T06:36:35;31.83;;;22.27;;
52786;SDS011;38661;53.152;5.846;2024-03-07T06:39:01;30.60;;;20.50;;
52786;SDS011;38661;53.152;5.846;2024-03-07T06:41:28;33.97;;;23.10;;
52786;SDS011;38661;53.152;5.846;2024-03-07T06:43:54;34.03;;;22.77;;
52786;SDS011;38661;53.152;5.846;2024-03-07T06:46:20;32.63;;;22.58;;
52786;SDS011;38661;53.152;5.846;2024-03-07T06:48:46;33.70;;;22.42;;
52786;SDS011;38661;53.152;5.846;2024-03-07T06:51:12;32.72;;;23.60;;
52786;SDS011;38661;53.152;5.846;2024-03-07T06:53:38;34.42;;;24.50;;
52786;SDS011;38661;53.152;5.846;2024-03-07T06:56:04;30.35;;;22.75;;
52786;SDS011;38661;53.152;5.846;2024-03-07T06:58:31;33.00;;;23.30;;
52786;SDS011;38661;53.152;5.846;2024-03-07T07:00:57;36.28;;;24.65;;
52786;SDS011;38661;53.152;5.846;2024-03-07T07:03:25;30.98;;;22.75;;
52786;SDS011;38661;53.152;5.846;2024-03-07T07:05:53;38.13;;;25.10;;
52786;SDS011;38661;53.152;5.846;2024-03-07T07:08:19;35.95;;;25.58;;
52786;SDS011;38661;53.152;5.846;2024-03-07T07:10:45;37.40;;;25.48;;
52786;SDS011;38661;53.152;5.846;2024-03-07T07:13:12;37.47;;;26.20;;
52786;SDS011;38661;53.152;5.846;2024-03-07T07:15:38;40.60;;;26.95;;
52786;SDS011;38661;53.152;5.846;2024-03-07T07:18:04;40.63;;;27.20;;
52786;SDS011;38661;53.152;5.846;2024-03-07T07:20:32;39.88;;;28.15;;
52786;SDS011;38661;53.152;5.846;2024-03-07T07:22:59;45.03;;;28.73;;
52786;SDS011;38661;53.152;5.846;2024-03-07T07:25:27;44.08;;;30.58;;
52786;SDS011;38661;53.152;5.846;2024-03-07T07:27:53;47.45;;;30.58;;
52786;SDS011;38661;53.152;5.846;2024-03-07T07:30:19;47.00;;;31.42;;
52786;SDS011;38661;53.152;5.846;2024-03-07T07:32:48;43.05;;;29.90;;
52786;SDS011;38661;53.152;5.846;2024-03-07T07:35:14;43.58;;;28.90;;
52786;SDS011;38661;53.152;5.846;2024-03-07T07:37:41;45.95;;;30.52;;
52786;SDS011;38661;53.152;5.846;2024-03-07T07:40:15;50.88;;;31.20;;
52786;SDS011;38661;53.152;5.846;2024-03-07T07:42:47;45.03;;;29.27;;
52786;SDS011;38661;53.152;5.846;2024-03-07T07:45:14;50.60;;;33.08;;
52786;SDS011;38661;53.152;5.846;2024-03-07T07:47:44;52.30;;;32.38;;
52786;SDS011;38661;53.152;5.846;2024-03-07T07:50:12;47.03;;;30.70;;
52786;SDS011;38661;53.152;5.846;2024-03-07T07:52:40;45.67;;;30.50;;
52786;SDS011;38661;53.152;5.846;2024-03-07T07:55:07;51.28;;;32.92;;
52786;SDS011;38661;53.152;5.846;2024-03-07T07:57:40;45.97;;;31.48;;
52786;SDS011;38661;53.152;5.846;2024-03-07T08:00:13;47.67;;;32.20;;
52786;SDS011;38661;53.152;5.846;2024-03-07T08:02:59;50.00;;;33.40;;
52786;SDS011;38661;53.152;5.846;2024-03-07T08:05:29;44.72;;;29.10;;
52786;SDS011;38661;53.152;5.846;2024-03-07T08:07:58;50.78;;;32.47;;
52786;SDS011;38661;53.152;5.846;2024-03-07T08:10:26;49.45;;;32.72;;
52786;SDS011;38661;53.152;5.846;2024-03-07T08:12:56;47.28;;;29.88;;
52786;SDS011;38661;53.152;5.846;2024-03-07T08:15:22;47.13;;;31.48;;
52786;SDS011;38661;53.152;5.846;2024-03-07T08:17:49;43.90;;;30.75;;
52786;SDS011;38661;53.152;5.846;2024-03-07T08:20:17;50.95;;;33.55;;
52786;SDS011;38661;53.152;5.846;2024-03-07T08:22:46;51.13;;;33.65;;
52786;SDS011;38661;53.152;5.846;2024-03-07T08:25:12;49.03;;;33.35;;
52786;SDS011;38661;53.152;5.846;2024-03-07T08:27:40;53.58;;;34.78;;
52786;SDS011;38661;53.152;5.846;2024-03-07T08:30:07;49.42;;;31.35;;
52786;SDS011;38661;53.152;5.846;2024-03-07T08:32:41;47.83;;;32.55;;
52786;SDS011;38661;53.152;5.846;2024-03-07T08:35:08;60.95;;;35.72;;
52786;SDS011;38661;53.152;5.846;2024-03-07T08:37:38;57.55;;;37.60;;
52786;SDS011;38661;53.152;5.846;2024-03-07T08:40:05;59.08;;;35.53;;
52786;SDS011;38661;53.152;5.846;2024-03-07T08:42:33;58.58;;;35.70;;
52786;SDS011;38661;53.152;5.846;2024-03-07T08:45:00;59.15;;;36.58;;
52786;SDS011;38661;53.152;5.846;2024-03-07T08:47:30;60.95;;;36.33;;
52786;SDS011;38661;53.152;5.846;2024-03-07T08:49:59;69.28;;;40.30;;
52786;SDS011;38661;53.152;5.846;2024-03-07T08:52:26;57.20;;;33.03;;
52786;SDS011;38661;53.152;5.846;2024-03-07T08:54:53;67.00;;;38.58;;
52786;SDS011;38661;53.152;5.846;2024-03-07T08:57:19;58.72;;;33.42;;
52786;SDS011;38661;53.152;5.846;2024-03-07T08:59:47;65.45;;;38.67;;
52786;SDS011;38661;53.152;5.846;2024-03-07T09:02:13;61.67;;;36.83;;
52786;SDS011;38661;53.152;5.846;2024-03-07T09:04:38;60.47;;;35.40;;
52786;SDS011;38661;53.152;5.846;2024-03-07T09:07:04;73.55;;;38.33;;
52786;SDS011;38661;53.152;5.846;2024-03-07T09:09:31;70.40;;;37.78;;
52786;SDS011;38661;53.152;5.846;2024-03-07T09:11:58;57.60;;;34.05;;
52786;SDS011;38661;53.152;5.846;2024-03-07T09:14:26;53.15;;;31.98;;
52786;SDS011;38661;53.152;5.846;2024-03-07T09:16:54;50.25;;;30.92;;
52786;SDS011;38661;53.152;5.846;2024-03-07T09:19:20;51.42;;;32.67;;
52786;SDS011;38661;53.152;5.846;2024-03-07T09:21:50;43.47;;;29.77;;
52786;SDS011;38661;53.152;5.846;2024-03-07T09:24:17;46.03;;;30.50;;
52786;SDS011;38661;53.152;5.846;2024-03-07T09:26:46;55.90;;;32.58;;
52786;SDS011;38661;53.152;5.846;2024-03-07T09:29:13;48.25;;;30.60;;
52786;SDS011;38661;53.152;5.846;2024-03-07T09:31:39;45.22;;;29.85;;
52786;SDS011;38661;53.152;5.846;2024-03-07T09:34:05;47.08;;;30.23;;
52786;SDS011;38661;53.152;5.846;2024-03-07T09:36:31;47.40;;;29.38;;
52786;SDS011;38661;53.152;5.846;2024-03-07T09:38:57;50.28;;;31.77;;
52786;SDS011;38661;53.152;5.846;2024-03-07T09:41:23;46.95;;;30.98;;
52786;SDS011;38661;53.152;5.846;2024-03-07T09:43:51;49.22;;;29.83;;
52786;SDS011;38661;53.152;5.846;2024-03-07T09:46:23;46.80;;;30.65;;
52786;SDS011;38661;53.152;5.846;2024-03-07T09:48:50;48.95;;;30.20;;
52786;SDS011;38661;53.152;5.846;2024-03-07T09:51:19;44.42;;;29.55;;
52786;SDS011;38661;53.152;5.846;2024-03-07T09:53:46;51.60;;;32.75;;
52786;SDS011;38661;53.152;5.846;2024-03-07T09:56:16;47.55;;;31.15;;
52786;SDS011;38661;53.152;5.846;2024-03-07T09:58:48;48.25;;;30.15;;
52786;SDS011;38661;53.152;5.846;2024-03-07T10:01:16;48.97;;;30.33;;
52786;SDS011;38661;53.152;5.846;2024-03-07T10:03:47;52.08;;;30.98;;
52786;SDS011;38661;53.152;5.846;2024-03-07T10:06:15;52.20;;;32.83;;
52786;SDS011;38661;53.152;5.846;2024-03-07T10:08:42;53.03;;;32.00;;
52786;SDS011;38661;53.152;5.846;2024-03-07T10:11:08;53.53;;;34.67;;
52786;SDS011;38661;53.152;5.846;2024-03-07T10:13:34;55.85;;;33.25;;
52786;SDS011;38661;53.152;5.846;2024-03-07T10:16:03;63.00;;;35.90;;
52786;SDS011;38661;53.152;5.846;2024-03-07T10:18:31;58.58;;;34.40;;
52786;SDS011;38661;53.152;5.846;2024-03-07T10:20:57;51.83;;;32.35;;
52786;SDS011;38661;53.152;5.846;2024-03-07T10:23:23;53.85;;;32.63;;
52786;SDS011;38661;53.152;5.846;2024-03-07T10:25:52;58.97;;;34.72;;
52786;SDS011;38661;53.152;5.846;2024-03-07T10:28:20;47.53;;;30.15;;
52786;SDS011;38661;53.152;5.846;2024-03-07T10:30:46;50.03;;;31.05;;
52786;SDS011;38661;53.152;5.846;2024-03-07T10:33:15;45.95;;;30.63;;
52786;SDS011;38661;53.152;5.846;2024-03-07T10:35:42;42.60;;;26.45;;
52786;SDS011;38661;53.152;5.846;2024-03-07T10:38:08;44.25;;;26.13;;
52786;SDS011;38661;53.152;5.846;2024-03-07T10:40:37;41.10;;;26.25;;
52786;SDS011;38661;53.152;5.846;2024-03-07T10:43:09;41.25;;;25.48;;
52786;SDS011;38661;53.152;5.846;2024-03-07T10:45:54;43.28;;;27.35;;
52786;SDS011;38661;53.152;5.846;2024-03-07T10:48:26;43.95;;;26.48;;
52786;SDS011;38661;53.152;5.846;2024-03-07T10:51:18;42.67;;;26.92;;
52786;SDS011;38661;53.152;5.846;2024-03-07T10:59:21;41.80;;;27.45;;
52786;SDS011;38661;53.152;5.846;2024-03-07T11:04:52;40.28;;;24.88;;
52786;SDS011;38661;53.152;5.846;2024-03-07T11:07:22;38.95;;;25.40;;
52786;SDS011;38661;53.152;5.846;2024-03-07T11:09:49;44.08;;;27.35;;
52786;SDS011;38661;53.152;5.846;2024-03-07T11:12:23;41.78;;;26.13;;
52786;SDS011;38661;53.152;5.846;2024-03-07T11:14:53;39.92;;;25.08;;
52786;SDS011;38661;53.152;5.846;2024-03-07T11:17:21;38.65;;;24.20;;
52786;SDS011;38661;53.152;5.846;2024-03-07T11:19:48;37.28;;;24.20;;
52786;SDS011;38661;53.152;5.846;2024-03-07T11:22:30;35.50;;;24.23;;
52786;SDS011;38661;53.152;5.846;2024-03-07T11:25:04;40.00;;;25.15;;
52786;SDS011;38661;53.152;5.846;2024-03-07T11:27:36;37.80;;;23.08;;
52786;SDS011;38661;53.152;5.846;2024-03-07T11:30:07;36.13;;;23.02;;
52786;SDS011;38661;53.152;5.846;2024-03-07T11:32:40;37.35;;;24.23;;
52786;SDS011;38661;53.152;5.846;2024-03-07T11:35:13;34.17;;;21.38;;
52786;SDS011;38661;53.152;5.846;2024-03-07T11:37:39;32.05;;;22.38;;
52786;SDS011;38661;53.152;5.846;2024-03-07T11:40:13;31.15;;;21.15;;
52786;SDS011;38661;53.152;5.846;2024-03-07T11:43:00;33.10;;;20.67;;
52786;SDS011;38661;53.152;5.846;2024-03-07T11:45:30;30.15;;;20.30;;
52786;SDS011;38661;53.152;5.846;2024-03-07T11:47:59;28.60;;;20.52;;
52786;SDS011;38661;53.152;5.846;2024-03-07T11:50:29;34.38;;;21.80;;
52786;SDS011;38661;53.152;5.846;2024-03-07T11:53:00;30.05;;;19.55;;
52786;SDS011;38661;53.152;5.846;2024-03-07T11:55:26;31.23;;;20.30;;
52786;SDS011;38661;53.152;5.846;2024-03-07T11:58:06;25.55;;;17.10;;
52786;SDS011;38661;53.152;5.846;2024-03-07T12:00:37;29.45;;;19.65;;
52786;SDS011;38661;53.152;5.846;2024-03-07T12:03:08;28.35;;;18.83;;
52786;SDS011;38661;53.152;5.846;2024-03-07T12:05:38;30.27;;;20.67;;
52786;SDS011;38661;53.152;5.846;2024-03-07T12:08:05;28.20;;;19.35;;
52786;SDS011;38661;53.152;5.846;2024-03-07T12:10:30;27.90;;;18.05;;
52786;SDS011;38661;53.152;5.846;2024-03-07T12:12:56;29.63;;;19.48;;
52786;SDS011;38661;53.152;5.846;2024-03-07T12:15:23;29.23;;;19.38;;
52786;SDS011;38661;53.152;5.846;2024-03-07T12:17:49;29.27;;;19.15;;
52786;SDS011;38661;53.152;5.846;2024-03-07T12:20:16;26.83;;;19.52;;
52786;SDS011;38661;53.152;5.846;2024-03-07T12:22:59;27.50;;;18.38;;
52786;SDS011;38661;53.152;5.846;2024-03-07T12:25:28;28.30;;;18.67;;
52786;SDS011;38661;53.152;5.846;2024-03-07T12:28:04;24.92;;;16.90;;
52786;SDS011;38661;53.152;5.846;2024-03-07T12:30:47;28.75;;;20.35;;
52786;SDS011;38661;53.152;5.846;2024-03-07T12:33:19;25.20;;;19.23;;
52786;SDS011;38661;53.152;5.846;2024-03-07T12:35:49;26.80;;;18.73;;
52786;SDS011;38661;53.152;5.846;2024-03-07T12:38:17;28.35;;;19.35;;
52786;SDS011;38661;53.152;5.846;2024-03-07T12:40:44;28.83;;;19.02;;
52786;SDS011;38661;53.152;5.846;2024-03-07T12:43:17;26.50;;;18.58;;
52786;SDS011;38661;53.152;5.846;2024-03-07T12:45:52;28.52;;;20.20;;
52786;SDS011;38661;53.152;5.846;2024-03-07T12:48:19;30.73;;;21.30;;
52786;SDS011;38661;53.152;5.846;2024-03-07T12:50:49;31.17;;;20.58;;
52786;SDS011;38661;53.152;5.846;2024-03-07T12:53:24;29.90;;;20.08;;
52786;SDS011;38661;53.152;5.846;2024-03-07T12:55:51;31.63;;;22.08;;
52786;SDS011;38661;53.152;5.846;2024-03-07T12:58:19;31.98;;;21.08;;
52786;SDS011;38661;53.152;5.846;2024-03-07T13:00:47;32.83;;;21.80;;
52786;SDS011;38661;53.152;5.846;2024-03-07T13:03:13;32.08;;;21.30;;
52786;SDS011;38661;53.152;5.846;2024-03-07T13:05:41;29.20;;;19.90;;
52786;SDS011;38661;53.152;5.846;2024-03-07T13:08:08;29.45;;;19.92;;
52786;SDS011;38661;53.152;5.846;2024-03-07T13:10:43;28.38;;;19.48;;
52786;SDS011;38661;53.152;5.846;2024-03-07T13:13:10;31.98;;;20.58;;
52786;SDS011;38661;53.152;5.846;2024-03-07T13:15:36;28.63;;;19.67;;
52786;SDS011;38661;53.152;5.846;2024-03-07T13:18:04;26.95;;;18.15;;
52786;SDS011;38661;53.152;5.846;2024-03-07T13:20:30;28.55;;;19.30;;
52786;SDS011;38661;53.152;5.846;2024-03-07T13:22:56;31.92;;;21.25;;
52786;SDS011;38661;53.152;5.846;2024-03-07T13:25:26;31.67;;;19.77;;
52786;SDS011;38661;53.152;5.846;2024-03-07T13:28:03;28.95;;;19.88;;
52786;SDS011;38661;53.152;5.846;2024-03-07T13:30:38;29.17;;;20.10;;
52786;SDS011;38661;53.152;5.846;2024-03-07T13:33:05;29.02;;;19.23;;
52786;SDS011;38661;53.152;5.846;2024-03-07T13:35:31;25.45;;;17.80;;
52786;SDS011;38661;53.152;5.846;2024-03-07T13:37:57;30.23;;;18.77;;
52786;SDS011;38661;53.152;5.846;2024-03-07T13:40:23;30.45;;;18.75;;
52786;SDS011;38661;53.152;5.846;2024-03-07T13:43:00;30.73;;;18.67;;
52786;SDS011;38661;53.152;5.846;2024-03-07T13:45:30;28.92;;;18.27;;
52786;SDS011;38661;53.152;5.846;2024-03-07T13:47:57;27.70;;;17.55;;
52786;SDS011;38661;53.152;5.846;2024-03-07T13:50:27;29.08;;;18.95;;
52786;SDS011;38661;53.152;5.846;2024-03-07T13:52:54;28.67;;;18.05;;
52786;SDS011;38661;53.152;5.846;2024-03-07T14:10:04;25.20;;;17.77;;
52786;SDS011;38661;53.152;5.846;2024-03-07T14:18:51;29.25;;;17.83;;
52786;SDS011;38661;53.152;5.846;2024-03-07T14:24:16;24.48;;;16.60;;
52786;SDS011;38661;53.152;5.846;2024-03-07T14:29:54;27.55;;;17.40;;
52786;SDS011;38661;53.152;5.846;2024-03-07T14:32:47;23.65;;;16.13;;
52786;SDS011;38661;53.152;5.846;2024-03-07T14:35:22;24.17;;;16.15;;
52786;SDS011;38661;53.152;5.846;2024-03-07T14:38:05;25.55;;;16.73;;
52786;SDS011;38661;53.152;5.846;2024-03-07T14:40:40;22.73;;;15.45;;
52786;SDS011;38661;53.152;5.846;2024-03-07T14:43:14;22.92;;;15.93;;
52786;SDS011;38661;53.152;5.846;2024-03-07T14:45:42;24.30;;;15.70;;
52786;SDS011;38661;53.152;5.846;2024-03-07T14:48:08;19.10;;;13.75;;
52786;SDS011;38661;53.152;5.846;2024-03-07T14:50:38;22.65;;;15.15;;
52786;SDS011;38661;53.152;5.846;2024-03-07T14:53:05;22.05;;;14.70;;
52786;SDS011;38661;53.152;5.846;2024-03-07T14:55:31;23.50;;;15.90;;
52786;SDS011;38661;53.152;5.846;2024-03-07T14:58:00;23.63;;;15.23;;
52786;SDS011;38661;53.152;5.846;2024-03-07T15:00:26;23.05;;;14.82;;
52786;SDS011;38661;53.152;5.846;2024-03-07T15:02:54;24.38;;;15.98;;
52786;SDS011;38661;53.152;5.846;2024-03-07T15:05:22;21.63;;;15.45;;